createdAt,value
2023-04-16T00:02:09.841Z,102420.31
2023-04-16T00:04:37.003Z,102420.34
2023-04-16T00:07:04.628Z,102416.97
2023-04-16T00:09:32.099Z,102428.28
2023-04-16T00:11:59.200Z,102413.69
2023-04-16T00:14:26.296Z,102419.75
2023-04-16T00:16:53.406Z,102418.84
2023-04-16T00:19:20.688Z,102427.44
2023-04-16T00:21:47.890Z,102416.31
2023-04-16T00:24:15.103Z,102429.19
2023-04-16T00:26:44.425Z,102433.53
2023-04-16T00:29:11.577Z,102428.34
2023-04-16T00:31:39.198Z,102434.44
2023-04-16T00:34:06.529Z,102439.63
2023-04-16T00:36:33.588Z,102433.59
2023-04-16T00:39:00.641Z,102433.59
2023-04-16T00:41:27.961Z,102438.00
2023-04-16T00:43:54.920Z,102430.19
2023-04-16T00:46:24.162Z,102435.44
2023-04-16T00:48:53.093Z,102435.44
2023-04-16T00:51:21.793Z,102439.81
2023-04-16T00:53:49.244Z,102432.09
2023-04-16T00:56:17.650Z,102444.25
2023-04-16T00:58:45.050Z,102420.16
2023-04-16T01:01:14.440Z,102436.56
2023-04-16T01:03:47.108Z,102435.75
2023-04-16T01:06:16.781Z,102441.84
2023-04-16T01:08:44.258Z,102440.19
2023-04-16T01:11:12.360Z,102440.19
2023-04-16T01:13:39.882Z,102444.59
2023-04-16T01:16:11.599Z,102448.06
2023-04-16T01:18:39.355Z,102446.38
2023-04-16T01:21:07.058Z,102441.22
2023-04-16T01:23:34.373Z,102442.91
2023-04-16T01:26:01.567Z,102424.94
2023-04-16T01:28:28.693Z,102437.84
2023-04-16T01:30:55.855Z,102444.72
2023-04-16T01:33:22.942Z,102438.69
2023-04-16T01:35:50.100Z,102442.16
2023-04-16T01:38:17.519Z,102432.75
2023-04-16T01:40:44.680Z,102444.84
2023-04-16T01:43:11.729Z,102449.16
2023-04-16T01:45:38.699Z,102440.50
2023-04-16T01:48:06.043Z,102450.06
2023-04-16T01:50:33.851Z,102449.19
2023-04-16T01:53:02.336Z,102452.66
2023-04-16T01:55:29.303Z,102453.56
2023-04-16T01:57:56.559Z,102454.44
2023-04-16T02:00:23.551Z,102462.22
2023-04-16T02:02:50.788Z,102460.47
2023-04-16T02:05:18.163Z,102460.44
2023-04-16T02:07:45.143Z,102461.25
2023-04-16T02:10:12.190Z,102454.31
2023-04-16T02:12:39.391Z,102451.75
2023-04-16T02:15:07.417Z,102455.22
2023-04-16T02:17:35.348Z,102449.91
2023-04-16T02:20:05.789Z,102456.78
2023-04-16T02:22:32.916Z,102450.69
2023-04-16T02:24:59.970Z,102444.53
2023-04-16T02:27:27.073Z,102453.97
2023-04-16T02:29:54.245Z,102453.03
2023-04-16T02:32:22.410Z,102452.06
2023-04-16T02:34:49.770Z,102454.53
2023-04-16T02:37:16.811Z,102458.69
2023-04-16T02:39:44.208Z,102468.06
2023-04-16T02:42:11.373Z,102461.81
2023-04-16T02:44:38.326Z,102469.44
2023-04-16T02:47:05.398Z,102459.66
2023-04-16T02:49:32.511Z,102456.00
2023-04-16T02:51:59.585Z,102459.22
2023-04-16T02:54:26.709Z,102468.50
2023-04-16T02:56:53.824Z,102462.22
2023-04-16T02:59:20.859Z,102468.94
2023-04-16T03:01:48.070Z,102461.81
2023-04-16T03:04:15.190Z,102470.22
2023-04-16T03:06:42.285Z,102462.22
2023-04-16T03:09:09.615Z,102473.13
2023-04-16T03:11:36.871Z,102469.44
2023-04-16T03:14:03.918Z,102471.75
2023-04-16T03:16:31.006Z,102468.78
2023-04-16T03:18:58.112Z,102473.72
2023-04-16T03:21:25.210Z,102482.13
2023-04-16T03:23:53.536Z,102478.28
2023-04-16T03:26:21.083Z,102482.16
2023-04-16T03:28:48.290Z,102461.75
2023-04-16T03:31:15.584Z,102478.69
2023-04-16T03:33:42.907Z,102476.44
2023-04-16T03:36:10.327Z,102467.28
2023-04-16T03:38:37.497Z,102478.06
2023-04-16T03:41:04.539Z,102480.06
2023-04-16T03:43:31.656Z,102480.31
2023-04-16T03:45:58.752Z,102467.53
2023-04-16T03:48:26.183Z,102472.22
2023-04-16T03:50:53.203Z,102469.00
2023-04-16T03:53:20.132Z,102471.91
2023-04-16T03:55:53.785Z,102472.22
2023-04-16T03:58:21.335Z,102474.19
2023-04-16T04:00:48.550Z,102469.94
2023-04-16T04:03:18.829Z,102465.00
2023-04-16T04:05:46.538Z,102471.13
2023-04-16T04:08:13.651Z,102473.84
2023-04-16T04:10:40.875Z,102455.84
2023-04-16T04:13:08.181Z,102468.75
2023-04-16T04:15:35.292Z,102472.16
2023-04-16T04:18:02.280Z,102469.41
2023-04-16T04:20:29.392Z,102468.28
2023-04-16T04:22:56.442Z,102468.28
2023-04-16T04:25:23.628Z,102458.75
2023-04-16T04:27:50.710Z,102458.81
2023-04-16T04:30:17.855Z,102450.13
2023-04-16T04:32:45.113Z,102439.34
2023-04-16T04:35:12.301Z,102430.22
2023-04-16T04:37:39.537Z,102420.50
2023-04-16T04:40:07.379Z,102421.28
2023-04-16T04:42:34.557Z,102429.97
2023-04-16T04:45:01.659Z,102418.50
2023-04-16T04:47:33.444Z,102416.41
2023-04-16T04:50:00.626Z,102420.22
2023-04-16T04:52:27.723Z,102429.13
2023-04-16T04:54:54.948Z,102416.75
2023-04-16T04:57:21.977Z,102419.41
2023-04-16T04:59:48.978Z,102421.47
2023-04-16T05:02:16.300Z,102419.47
2023-04-16T05:04:43.458Z,102419.88
2023-04-16T05:07:10.831Z,102418.63
2023-04-16T05:09:37.873Z,102418.22
2023-04-16T05:12:05.147Z,102412.84
2023-04-16T05:14:32.459Z,102403.47
2023-04-16T05:16:59.558Z,102416.59
2023-04-16T05:19:26.719Z,102426.63
2023-04-16T05:21:54.693Z,102418.06
2023-04-16T05:24:23.441Z,102409.47
2023-04-16T05:26:50.509Z,102417.75
2023-04-16T05:29:17.620Z,102412.31
2023-04-16T05:31:44.833Z,102409.41
2023-04-16T05:34:12.016Z,102412.03
2023-04-16T05:36:38.971Z,102411.44
2023-04-16T05:39:06.338Z,102422.06
2023-04-16T05:41:33.930Z,102400.88
2023-04-16T05:44:00.991Z,102412.75
2023-04-16T05:46:28.048Z,102414.84
2023-04-16T05:48:55.048Z,102409.88
2023-04-16T05:51:24.614Z,102411.78
2023-04-16T05:53:51.785Z,102411.16
2023-04-16T05:56:19.074Z,102411.50
2023-04-16T05:58:46.270Z,102409.16
2023-04-16T06:01:13.566Z,102408.94
2023-04-16T06:03:40.888Z,102415.25
2023-04-16T06:06:09.096Z,102422.03
2023-04-16T06:08:36.251Z,102425.94
2023-04-16T06:11:03.846Z,102417.97
2023-04-16T06:13:31.186Z,102418.84
2023-04-16T06:15:58.725Z,102418.97
2023-04-16T06:18:25.930Z,102412.09
2023-04-16T06:20:53.325Z,102410.00
2023-04-16T06:23:20.738Z,102404.63
2023-04-16T06:25:47.834Z,102407.41
2023-04-16T06:28:15.388Z,102400.97
2023-04-16T06:30:53.492Z,102412.06
2023-04-16T06:33:20.950Z,102402.75
2023-04-16T06:35:48.032Z,102410.78
2023-04-16T06:38:15.817Z,102408.88
2023-04-16T06:40:42.920Z,102406.66
2023-04-16T06:43:10.020Z,102404.81
2023-04-16T06:45:37.197Z,102402.09
2023-04-16T06:48:05.313Z,102396.28
2023-04-16T06:50:32.469Z,102400.34
2023-04-16T06:52:59.562Z,102401.38
2023-04-16T06:55:26.607Z,102393.94
2023-04-16T06:57:53.675Z,102393.94
2023-04-16T07:00:20.997Z,102393.59
2023-04-16T07:02:48.204Z,102388.66
2023-04-16T07:05:15.407Z,102389.47
2023-04-16T07:07:42.686Z,102377.28
2023-04-16T07:10:10.200Z,102382.09
2023-04-16T07:12:37.486Z,102372.72
2023-04-16T07:15:05.769Z,102376.44
2023-04-16T07:17:33.295Z,102379.84
2023-04-16T07:20:00.673Z,102377.75
2023-04-16T07:22:27.959Z,102371.50
2023-04-16T07:24:55.900Z,102361.44
2023-04-16T07:27:23.431Z,102371.13
2023-04-16T07:29:51.138Z,102358.53
2023-04-16T07:32:18.359Z,102368.13
2023-04-16T07:34:45.573Z,102373.88
2023-04-16T07:37:12.672Z,102367.47
2023-04-16T07:39:40.215Z,102369.63
2023-04-16T07:42:07.537Z,102365.16
2023-04-16T07:44:34.881Z,102358.13
2023-04-16T07:47:04.744Z,102365.38
2023-04-16T07:49:32.499Z,102349.69
2023-04-16T07:51:59.701Z,102359.78
2023-04-16T07:54:28.838Z,102360.78
2023-04-16T07:56:56.501Z,102361.41
2023-04-16T07:59:24.540Z,102356.28
2023-04-16T08:01:54.056Z,102358.31
2023-04-16T08:04:25.647Z,102363.53
2023-04-16T08:06:54.111Z,102350.25
2023-04-16T08:09:22.534Z,102361.06
2023-04-16T08:11:50.173Z,102355.63
2023-04-16T08:14:21.118Z,102359.72
2023-04-16T08:16:48.156Z,102356.44
2023-04-16T08:19:15.361Z,102350.66
2023-04-16T08:21:42.523Z,102345.59
2023-04-16T08:24:09.611Z,102348.19
2023-04-16T08:26:36.735Z,102341.53
2023-04-16T08:29:05.952Z,102341.78
2023-04-16T08:31:37.338Z,102335.53
2023-04-16T08:34:06.026Z,102332.72
2023-04-16T08:36:33.184Z,102330.00
2023-04-16T08:39:00.870Z,102319.47
2023-04-16T08:41:36.912Z,102311.28
2023-04-16T08:44:09.533Z,102309.53
2023-04-16T08:46:38.132Z,102316.47
2023-04-16T08:49:08.757Z,102326.72
2023-04-16T08:51:36.433Z,102323.50
2023-04-16T08:54:05.843Z,102322.56
2023-04-16T08:56:37.674Z,102313.88
2023-04-16T08:59:08.600Z,102312.84
2023-04-16T09:01:36.236Z,102310.75
2023-04-16T09:04:04.271Z,102311.56
2023-04-16T09:06:33.349Z,102306.41
2023-04-16T09:09:04.813Z,102306.63
2023-04-16T09:11:32.575Z,102301.13
2023-04-16T09:14:01.032Z,102304.81
2023-04-16T09:16:33.818Z,102300.94
2023-04-16T09:19:00.828Z,102293.13
2023-04-16T09:21:28.267Z,102302.81
2023-04-16T09:23:55.742Z,102292.25
2023-04-16T09:26:23.078Z,102290.41
2023-04-16T09:28:51.640Z,102293.38
2023-04-16T09:31:19.632Z,102277.28
2023-04-16T09:34:03.301Z,102280.41
2023-04-16T09:36:32.701Z,102282.72
2023-04-16T09:39:00.365Z,102261.41
2023-04-16T09:41:29.649Z,102269.03
2023-04-16T09:44:07.079Z,102270.44
2023-04-16T09:46:41.975Z,102278.22
2023-04-16T09:49:10.702Z,102259.03
2023-04-16T09:51:38.546Z,102264.09
2023-04-16T09:54:07.169Z,102265.91
2023-04-16T09:56:34.297Z,102262.13
2023-04-16T09:59:01.288Z,102264.69
2023-04-16T10:01:30.922Z,102265.03
2023-04-16T10:04:00.115Z,102262.13
2023-04-16T10:06:29.674Z,102247.72
2023-04-16T10:08:57.431Z,102249.72
2023-04-16T10:11:26.086Z,102244.44
2023-04-16T10:13:53.661Z,102253.03
2023-04-16T10:16:23.141Z,102256.88
2023-04-16T10:18:50.175Z,102259.94
2023-04-16T10:21:17.586Z,102251.03
2023-04-16T10:23:44.991Z,102253.66
2023-04-16T10:26:12.253Z,102249.72
2023-04-16T10:28:39.430Z,102241.69
2023-04-16T10:31:08.925Z,102240.38
2023-04-16T10:33:39.649Z,102237.56
2023-04-16T10:36:10.808Z,102238.56
2023-04-16T10:38:49.773Z,102234.88
2023-04-16T10:41:17.392Z,102238.50
2023-04-16T10:43:47.010Z,102243.13
2023-04-16T10:46:31.049Z,102245.97
2023-04-16T10:49:03.092Z,102236.09
2023-04-16T10:51:33.261Z,102228.56
2023-04-16T10:54:19.664Z,102228.41
2023-04-16T10:56:47.717Z,102239.72
2023-04-16T10:59:19.352Z,102236.84
2023-04-16T11:01:49.033Z,102229.31
2023-04-16T11:04:22.344Z,102223.19
2023-04-16T11:07:11.785Z,102229.63
2023-04-16T11:09:53.304Z,102221.56
2023-04-16T11:12:28.055Z,102222.56
2023-04-16T11:15:02.870Z,102220.16
2023-04-16T11:17:44.942Z,102223.16
2023-04-16T11:20:21.291Z,102221.91
2023-04-16T11:22:50.586Z,102213.94
2023-04-16T11:25:25.233Z,102218.63
2023-04-16T11:27:53.755Z,102203.56
2023-04-16T11:30:35.186Z,102201.41
2023-04-16T11:33:10.022Z,102211.81
2023-04-16T11:35:39.383Z,102209.53
2023-04-16T11:38:07.638Z,102209.75
2023-04-16T11:40:35.452Z,102190.22
2023-04-16T11:43:15.111Z,102201.81
2023-04-16T11:45:59.750Z,102195.13
2023-04-16T11:48:47.193Z,102203.63
2023-04-16T11:51:14.906Z,102190.13
2023-04-16T11:53:55.297Z,102195.09
2023-04-16T11:56:30.575Z,102196.03
2023-04-16T11:59:14.870Z,102184.28
2023-04-16T12:01:46.149Z,102184.81
2023-04-16T12:04:16.063Z,102182.69
2023-04-16T12:07:11.447Z,102179.91
2023-04-16T12:09:43.280Z,102178.59
2023-04-16T12:12:33.484Z,102182.19
2023-04-16T12:15:05.124Z,102179.13
2023-04-16T12:17:37.935Z,102164.63
2023-04-16T12:20:12.911Z,102164.19
2023-04-16T12:23:01.646Z,102172.66
2023-04-16T12:25:29.211Z,102168.84
2023-04-16T12:27:58.367Z,102162.16
2023-04-16T12:30:27.242Z,102150.28
2023-04-16T12:33:18.138Z,102157.38
2023-04-16T12:35:46.085Z,102158.03
2023-04-16T12:38:15.991Z,102148.41
2023-04-16T12:40:43.516Z,102144.63
2023-04-16T12:43:16.391Z,102098.06
2023-04-16T12:45:46.736Z,102144.88
2023-04-16T12:48:13.987Z,102136.00
2023-04-16T12:50:44.519Z,102144.63
2023-04-16T12:53:12.120Z,102134.03
2023-04-16T12:55:39.394Z,102130.19
2023-04-16T12:58:07.232Z,102130.53
2023-04-16T13:00:34.141Z,102130.69
2023-04-16T13:03:01.504Z,102134.56
2023-04-16T13:05:29.021Z,102135.03
2023-04-16T13:07:56.262Z,102133.66
2023-04-16T13:10:23.760Z,102129.59
2023-04-16T13:12:50.997Z,102132.56
2023-04-16T13:15:18.240Z,102121.25
2023-04-16T13:17:45.536Z,102117.13
2023-04-16T13:20:12.750Z,102127.97
2023-04-16T13:22:39.898Z,102120.84
2023-04-16T13:25:07.715Z,102120.97
2023-04-16T13:27:34.805Z,102122.94
2023-04-16T13:30:01.924Z,102108.56
2023-04-16T13:32:32.367Z,102111.34
2023-04-16T13:34:59.582Z,102107.22
2023-04-16T13:37:26.722Z,102100.56
2023-04-16T13:39:53.683Z,102109.84
2023-04-16T13:42:20.955Z,102102.19
2023-04-16T13:44:49.527Z,102105.09
2023-04-16T13:47:17.250Z,102099.28
2023-04-16T13:49:44.453Z,102112.44
2023-04-16T13:52:11.644Z,102105.47
2023-04-16T13:54:38.671Z,102097.91
2023-04-16T13:57:05.855Z,102100.34
2023-04-16T13:59:33.210Z,102101.09
2023-04-16T14:02:00.544Z,102092.66
2023-04-16T14:04:28.052Z,102095.91
2023-04-16T14:06:55.034Z,102093.41
2023-04-16T14:09:21.968Z,102090.75
2023-04-16T14:11:49.137Z,102095.88
2023-04-16T14:14:16.399Z,102094.06
2023-04-16T14:16:43.674Z,102088.63
2023-04-16T14:19:11.271Z,102090.22
2023-04-16T14:21:38.522Z,102083.75
2023-04-16T14:24:06.190Z,102093.63
2023-04-16T14:26:33.392Z,102097.59
2023-04-16T14:29:00.475Z,102083.81
2023-04-16T14:31:27.710Z,102079.72
2023-04-16T14:33:54.855Z,102085.78
2023-04-16T14:36:21.985Z,102080.56
2023-04-16T14:38:49.131Z,102080.69
2023-04-16T14:41:16.312Z,102079.81
2023-04-16T14:43:44.616Z,102083.88
2023-04-16T14:46:11.811Z,102079.34
2023-04-16T14:48:39.242Z,102077.50
2023-04-16T14:51:07.343Z,102084.09
2023-04-16T14:53:36.296Z,102083.09
2023-04-16T14:56:03.832Z,102078.00
2023-04-16T14:58:31.597Z,102079.38
2023-04-16T15:00:59.315Z,102085.78
2023-04-16T15:03:26.825Z,102080.41
2023-04-16T15:05:56.693Z,102077.94
2023-04-16T15:08:24.737Z,102064.47
2023-04-16T15:10:52.075Z,102077.34
2023-04-16T15:13:19.656Z,102072.81
2023-04-16T15:15:46.827Z,102059.94
2023-04-16T15:18:14.124Z,102057.75
2023-04-16T15:20:41.494Z,102073.31
2023-04-16T15:23:08.493Z,102069.72
2023-04-16T15:25:35.664Z,102066.97
2023-04-16T15:28:02.844Z,102068.56
2023-04-16T15:30:31.457Z,102069.59
2023-04-16T15:32:58.570Z,102071.28
2023-04-16T15:35:25.620Z,102071.19
2023-04-16T15:37:53.075Z,102072.16
2023-04-16T15:40:20.847Z,102066.03
2023-04-16T15:42:47.992Z,102066.88
2023-04-16T15:45:15.076Z,102069.53
2023-04-16T15:47:48.100Z,102074.28
2023-04-16T15:50:15.459Z,102077.53
2023-04-16T15:52:42.543Z,102077.66
2023-04-16T15:55:10.182Z,102077.53
2023-04-16T15:57:37.291Z,102072.94
2023-04-16T16:00:13.375Z,102071.88
2023-04-16T16:02:42.074Z,102073.53
2023-04-16T16:05:18.934Z,102079.72
2023-04-16T16:07:46.590Z,102074.34
2023-04-16T16:10:13.734Z,102073.47
2023-04-16T16:12:41.559Z,102082.84
2023-04-16T16:15:11.302Z,102078.31
2023-04-16T16:17:39.107Z,102079.84
2023-04-16T16:20:10.687Z,102082.44
2023-04-16T16:22:38.437Z,102083.97
2023-04-16T16:25:07.832Z,102088.88
2023-04-16T16:27:36.493Z,102092.19
2023-04-16T16:30:06.685Z,102074.38
2023-04-16T16:32:34.378Z,102086.25
2023-04-16T16:35:01.692Z,102088.59
2023-04-16T16:37:31.050Z,102092.66
2023-04-16T16:39:58.173Z,102096.69
2023-04-16T16:42:25.368Z,102090.13
2023-04-16T16:44:53.888Z,102084.94
2023-04-16T16:47:22.095Z,102087.78
2023-04-16T16:49:49.231Z,102090.03
2023-04-16T16:52:16.390Z,102090.34
2023-04-16T16:54:43.560Z,102095.22
2023-04-16T16:57:11.007Z,102089.38
2023-04-16T16:59:37.948Z,102090.63
2023-04-16T17:02:06.690Z,102090.00
2023-04-16T17:04:33.843Z,102089.56
2023-04-16T17:07:01.288Z,102078.34
2023-04-16T17:09:28.348Z,102086.63
2023-04-16T17:11:55.551Z,102087.75
2023-04-16T17:14:22.788Z,102085.31
2023-04-16T17:16:50.069Z,102077.13
2023-04-16T17:19:18.128Z,102086.97
2023-04-16T17:21:45.276Z,102090.56
2023-04-16T17:24:12.608Z,102090.03
2023-04-16T17:26:41.302Z,102081.53
2023-04-16T17:29:08.288Z,102086.22
2023-04-16T17:31:36.102Z,102085.56
2023-04-16T17:34:06.081Z,102086.75
2023-04-16T17:36:33.142Z,102083.50
2023-04-16T17:39:00.206Z,102083.88
2023-04-16T17:41:27.455Z,102079.81
2023-04-16T17:43:54.752Z,102086.28
2023-04-16T17:46:22.060Z,102067.78
2023-04-16T17:48:49.319Z,102081.56
2023-04-16T17:51:16.718Z,102082.81
2023-04-16T17:53:44.838Z,102080.56
2023-04-16T17:56:13.990Z,102078.41
2023-04-16T17:58:41.099Z,102084.19
2023-04-16T18:01:08.383Z,102071.34
2023-04-16T18:03:35.987Z,102080.25
2023-04-16T18:06:03.298Z,102083.28
2023-04-16T18:08:30.585Z,102078.56
2023-04-16T18:10:57.805Z,102081.41
2023-04-16T18:13:25.117Z,102089.72
2023-04-16T18:15:53.199Z,102087.44
2023-04-16T18:18:21.614Z,102079.03
2023-04-16T18:20:48.820Z,102080.25
2023-04-16T18:23:15.913Z,102081.59
2023-04-16T18:25:43.369Z,102084.59
2023-04-16T18:28:13.640Z,102081.78
2023-04-16T18:30:41.204Z,102093.44
2023-04-16T18:33:34.242Z,102083.44
2023-04-16T18:35:55.462Z,102089.09
2023-04-16T18:38:23.097Z,102080.75
2023-04-16T18:40:50.113Z,102078.63
2023-04-16T18:43:17.301Z,102074.66
2023-04-16T18:45:45.078Z,102071.44
2023-04-16T18:48:12.263Z,102080.41
2023-04-16T18:50:39.419Z,102073.78
2023-04-16T18:53:06.645Z,102077.44
2023-04-16T18:55:33.786Z,102078.53
2023-04-16T18:58:01.070Z,102082.31
2023-04-16T19:00:28.441Z,102075.50
2023-04-16T19:02:58.635Z,102078.31
2023-04-16T19:05:25.769Z,102073.22
2023-04-16T19:07:53.439Z,102078.66
2023-04-16T19:10:20.522Z,102074.41
2023-04-16T19:12:47.811Z,102068.56
2023-04-16T19:15:15.000Z,102072.28
2023-04-16T19:17:42.292Z,102073.31
2023-04-16T19:20:11.700Z,102076.81
2023-04-16T19:22:38.936Z,102077.94
2023-04-16T19:25:07.395Z,102080.63
2023-04-16T19:27:35.037Z,102073.84
2023-04-16T19:30:03.064Z,102088.06
2023-04-16T19:32:32.761Z,102094.44
2023-04-16T19:34:59.875Z,102095.47
2023-04-16T19:37:27.425Z,102093.06
2023-04-16T19:39:55.941Z,102093.31
2023-04-16T19:42:24.598Z,102090.69
2023-04-16T19:44:52.487Z,102090.78
2023-04-16T19:47:20.243Z,102093.50
2023-04-16T19:49:47.389Z,102096.13
2023-04-16T19:52:16.562Z,102097.06
2023-04-16T19:54:44.130Z,102099.03
2023-04-16T19:57:12.776Z,102100.72
2023-04-16T19:59:39.840Z,102100.97
2023-04-16T20:02:07.442Z,102103.53
2023-04-16T20:04:35.712Z,102105.41
2023-04-16T20:07:02.820Z,102109.88
2023-04-16T20:09:30.008Z,102109.13
2023-04-16T20:11:58.166Z,102100.63
2023-04-16T20:14:25.418Z,102112.88
2023-04-16T20:16:52.907Z,102112.13
2023-04-16T20:19:20.078Z,102107.91
2023-04-16T20:21:47.161Z,102107.16
2023-04-16T20:24:15.571Z,102110.97
2023-04-16T20:26:42.727Z,102107.66
2023-04-16T20:29:10.585Z,102114.97
2023-04-16T20:31:37.749Z,102106.50
2023-04-16T20:34:04.728Z,102113.06
2023-04-16T20:36:32.141Z,102109.66
2023-04-16T20:39:00.011Z,102114.38
2023-04-16T20:41:27.487Z,102114.72
2023-04-16T20:43:54.586Z,102110.59
2023-04-16T20:46:26.109Z,102111.75
2023-04-16T20:48:53.228Z,102110.44
2023-04-16T20:51:20.354Z,102111.75
2023-04-16T20:53:47.396Z,102100.13
2023-04-16T20:56:17.335Z,102102.19
2023-04-16T20:58:44.454Z,102112.19
2023-04-16T21:01:11.590Z,102107.31
2023-04-16T21:03:38.881Z,102112.03
2023-04-16T21:06:06.159Z,102111.47
2023-04-16T21:08:33.255Z,102102.19
2023-04-16T21:11:00.325Z,102116.41
2023-04-16T21:13:27.443Z,102108.03
2023-04-16T21:15:54.655Z,102104.97
2023-04-16T21:18:21.833Z,102106.84
2023-04-16T21:20:48.932Z,102108.97
2023-04-16T21:23:16.087Z,102104.16
2023-04-16T21:25:43.118Z,102110.31
2023-04-16T21:28:10.330Z,102108.00
2023-04-16T21:30:37.470Z,102092.81
2023-04-16T21:33:04.552Z,102107.72
2023-04-16T21:35:33.323Z,102117.59
2023-04-16T21:38:00.399Z,102104.72
2023-04-16T21:40:27.470Z,102106.66
2023-04-16T21:42:55.371Z,102115.56
2023-04-16T21:45:22.470Z,102111.41
2023-04-16T21:47:49.767Z,102101.50
2023-04-16T21:50:17.132Z,102115.41
2023-04-16T21:52:46.864Z,102119.88
2023-04-16T21:55:14.822Z,102112.34
2023-04-16T21:57:41.914Z,102107.31
2023-04-16T22:00:13.904Z,102112.09
2023-04-16T22:02:42.732Z,102106.22
2023-04-16T22:05:11.505Z,102121.09
2023-04-16T22:07:39.069Z,102116.88
2023-04-16T22:10:07.215Z,102108.63
2023-04-16T22:12:37.836Z,102119.06
2023-04-16T22:15:09.220Z,102114.91
2023-04-16T22:17:36.942Z,102120.16
2023-04-16T22:20:10.206Z,102115.13
2023-04-16T22:22:37.268Z,102115.31
2023-04-16T22:25:04.776Z,102107.69
2023-04-16T22:27:33.915Z,102105.06
2023-04-16T22:30:01.941Z,102112.22
2023-04-16T22:32:34.287Z,102104.59
2023-04-16T22:35:02.151Z,102095.16
2023-04-16T22:37:31.069Z,102107.34
2023-04-16T22:39:58.277Z,102107.63
2023-04-16T22:42:25.295Z,102102.66
2023-04-16T22:44:52.526Z,102100.75
2023-04-16T22:47:19.587Z,102107.84
2023-04-16T22:49:47.650Z,102103.69
2023-04-16T22:52:14.733Z,102104.75
2023-04-16T22:54:41.753Z,102109.13
2023-04-16T22:57:08.848Z,102079.97
2023-04-16T22:59:35.863Z,102103.13
2023-04-16T23:02:02.949Z,102103.22
2023-04-16T23:04:30.141Z,102096.31
2023-04-16T23:06:57.244Z,102099.06
2023-04-16T23:09:24.378Z,102099.06
2023-04-16T23:11:51.490Z,102100.03
2023-04-16T23:14:18.817Z,102113.94
2023-04-16T23:16:45.851Z,102107.91
2023-04-16T23:19:15.156Z,102114.00
2023-04-16T23:21:42.651Z,102112.38
2023-04-16T23:24:10.102Z,102114.06
2023-04-16T23:26:37.160Z,102108.22
2023-04-16T23:29:04.200Z,102129.78
2023-04-16T23:31:31.324Z,102120.41
2023-04-16T23:33:58.507Z,102131.56
2023-04-16T23:36:26.586Z,102129.06
2023-04-16T23:38:54.126Z,102136.16
2023-04-16T23:41:23.366Z,102128.31
2023-04-16T23:43:50.376Z,102130.03
2023-04-16T23:46:17.809Z,102128.31
2023-04-16T23:48:44.814Z,102138.69
2023-04-16T23:51:12.023Z,102138.78
2023-04-16T23:53:41.032Z,102144.84
2023-04-16T23:56:11.329Z,102148.44
2023-04-16T23:58:39.038Z,102141.63
